Time;durP1;ratioP1;P1;durP2;ratioP2;P2;SDS_P1;SDS_P2;PMS_P1;PMS_P2;Temp;Humidity;BMP_temperature;BMP_pressure;BME280_temperature;BME280_humidity;BME280_pressure;Samples;Min_cycle;Max_cycle;Signal;HPM_P1;HPM_P2
2023/09/28 00:01:16;;;;;;;;;;;21.20;72.60;;;;;;5106913;28;1374;-69
2023/09/28 00:03:41;;;;;;;;;;;21.10;72.60;;;;;;5086690;28;1273;-70
2023/09/28 00:06:07;;;;;;;;;;;21.20;72.60;;;;;;5104917;28;1986;-69
2023/09/28 00:08:32;;;;;;;;;;;21.10;72.60;;;;;;5102897;28;1892;-69
2023/09/28 00:10:59;;;;;;;;;;;21.10;72.60;;;;;;5106986;27;1346;-68
2023/09/28 00:13:24;;;;;;;;;;;21.10;72.70;;;;;;5089716;28;1298;-69
2023/09/28 00:15:49;;;;;;;;;;;21.20;72.70;;;;;;5107984;27;1459;-70
2023/09/28 00:18:15;;;;;;;;;;;21.10;72.60;;;;;;5105018;27;1957;-70
2023/09/28 00:20:40;;;;;;;;;;;21.10;72.60;;;;;;5111335;27;1415;-71
2023/09/28 00:23:06;;;;;;;;;;;21.10;72.60;;;;;;5108648;27;1346;-69
2023/09/28 00:25:31;;;;;;;;;;;21.10;72.60;;;;;;5103312;27;1299;-69
2023/09/28 00:27:57;;;;;;;;;;;21.10;72.60;;;;;;5103269;27;1344;-69
2023/09/28 00:30:24;;;;;;;;;;;21.10;72.60;;;;;;5086221;28;1331;-69
2023/09/28 00:32:51;;;;;;;;;;;21.20;72.70;;;;;;5104911;28;1358;-69
2023/09/28 00:35:17;;;;;;;;;;;21.10;72.60;;;;;;5083335;28;1421;-69
2023/09/28 00:37:43;;;;;;;;;;;21.10;72.60;;;;;;5104165;28;1906;-69
2023/09/28 00:40:27;;;;;;;;;;;21.10;72.70;;;;;;5084480;28;1303;-69
2023/09/28 00:42:53;;;;;;;;;;;21.10;72.70;;;;;;5103443;28;1331;-69
2023/09/28 00:45:21;;;;;;;;;;;21.10;72.60;;;;;;5070264;28;1413;-69
2023/09/28 00:47:47;;;;;;;;;;;21.10;72.70;;;;;;5084289;28;1271;-69
2023/09/28 00:50:16;;;;;;;;;;;21.10;72.70;;;;;;5104415;28;1388;-69
2023/09/28 00:52:42;;;;;;;;;;;21.10;72.70;;;;;;5072319;28;1195;-69
2023/09/28 00:55:08;;;;;;;;;;;21.10;72.70;;;;;;5103664;28;1475;-70
2023/09/28 00:57:38;;;;;;;;;;;21.10;72.70;;;;;;5083320;28;1955;-69
2023/09/28 01:02:50;;;;;;;;;;;21.10;72.70;;;;;;5103129;28;1293;-69
2023/09/28 01:05:25;;;;;;;;;;;21.10;72.70;;;;;;5086987;28;1381;-70
2023/09/28 01:07:50;;;;;;;;;;;21.10;72.70;;;;;;5083616;28;1476;-69
2023/09/28 01:10:23;;;;;;;;;;;21.20;72.70;;;;;;5086748;28;1524;-68
2023/09/28 01:12:49;;;;;;;;;;;21.10;72.70;;;;;;5084684;28;969;-68
2023/09/28 01:15:14;;;;;;;;;;;21.10;72.70;;;;;;5101698;28;1035;-68
2023/09/28 01:17:40;;;;;;;;;;;21.10;72.70;;;;;;5106249;28;1886;-69
2023/09/28 01:20:34;;;;;;;;;;;21.10;72.70;;;;;;5082674;28;1377;-69
2023/09/28 01:22:59;;;;;;;;;;;21.10;72.70;;;;;;5099955;28;1168;-69
2023/09/28 01:25:26;;;;;;;;;;;21.10;72.70;;;;;;5086063;28;1236;-69
2023/09/28 01:27:52;;;;;;;;;;;21.20;72.70;;;;;;5102397;28;1186;-69
2023/09/28 01:30:17;;;;;;;;;;;21.10;72.70;;;;;;5083645;28;1444;-70
2023/09/28 01:32:43;;;;;;;;;;;21.10;72.70;;;;;;5084259;28;1327;-69
2023/09/28 01:35:08;;;;;;;;;;;21.10;72.70;;;;;;5099428;28;1223;-70
2023/09/28 01:37:45;;;;;;;;;;;21.10;72.70;;;;;;5103647;28;1902;-70
2023/09/28 01:40:13;;;;;;;;;;;21.10;72.70;;;;;;5084092;28;1292;-69
2023/09/28 01:42:38;;;;;;;;;;;21.10;72.70;;;;;;5101666;28;1202;-70
2023/09/28 01:45:04;;;;;;;;;;;21.10;72.70;;;;;;5083551;28;1305;-70
2023/09/28 01:47:30;;;;;;;;;;;21.10;72.70;;;;;;5087696;28;1474;-70
2023/09/28 01:49:55;;;;;;;;;;;21.10;72.70;;;;;;5082132;28;1347;-70
2023/09/28 01:52:21;;;;;;;;;;;21.10;72.70;;;;;;5085584;28;1487;-69
2023/09/28 01:54:46;;;;;;;;;;;21.10;72.70;;;;;;5104753;28;1302;-70
2023/09/28 01:57:12;;;;;;;;;;;21.10;72.70;;;;;;5103235;28;1909;-70
2023/09/28 01:59:37;;;;;;;;;;;21.10;72.70;;;;;;5100419;28;1697;-70
2023/09/28 02:02:04;;;;;;;;;;;21.10;72.70;;;;;;5100528;28;1423;-70
2023/09/28 02:04:30;;;;;;;;;;;21.10;72.70;;;;;;5069190;28;1476;-70
2023/09/28 02:06:55;;;;;;;;;;;21.10;72.70;;;;;;5100232;28;1292;-70
2023/09/28 02:09:21;;;;;;;;;;;21.10;72.70;;;;;;5098889;28;1625;-70
2023/09/28 02:11:46;;;;;;;;;;;21.10;72.70;;;;;;5100862;28;1456;-69
2023/09/28 02:14:12;;;;;;;;;;;21.10;72.70;;;;;;5100805;28;1222;-70
2023/09/28 02:16:38;;;;;;;;;;;21.10;72.70;;;;;;5082030;28;1459;-70
2023/09/28 02:19:04;;;;;;;;;;;21.10;72.70;;;;;;5060790;28;1089791;-70
2023/09/28 02:21:30;;;;;;;;;;;21.10;72.70;;;;;;5102371;28;1490;-69
2023/09/28 02:23:58;;;;;;;;;;;21.10;72.70;;;;;;5099078;28;1489;-70
2023/09/28 02:26:24;;;;;;;;;;;21.10;72.70;;;;;;5098069;28;1668;-69
2023/09/28 02:28:50;;;;;;;;;;;21.10;72.70;;;;;;5086666;28;1423;-71
2023/09/28 02:31:15;;;;;;;;;;;21.10;72.70;;;;;;5096590;28;1359;-71
2023/09/28 02:33:41;;;;;;;;;;;21.10;72.70;;;;;;5101079;28;1253;-70
2023/09/28 02:36:08;;;;;;;;;;;21.10;72.70;;;;;;5085802;28;1572;-70
2023/09/28 02:38:33;;;;;;;;;;;21.10;72.80;;;;;;5101921;28;1989;-71
2023/09/28 02:40:59;;;;;;;;;;;21.10;72.70;;;;;;5101600;28;1475;-70
2023/09/28 02:43:24;;;;;;;;;;;21.10;72.70;;;;;;5100395;28;1804;-69
2023/09/28 02:45:50;;;;;;;;;;;21.10;72.70;;;;;;5104765;28;1490;-70
2023/09/28 02:48:16;;;;;;;;;;;21.10;72.70;;;;;;5097327;28;1311;-70
2023/09/28 02:50:42;;;;;;;;;;;21.10;72.70;;;;;;5082063;28;1631;-70
2023/09/28 02:53:08;;;;;;;;;;;21.10;72.80;;;;;;5100224;28;1548;-70
2023/09/28 02:55:33;;;;;;;;;;;21.10;72.70;;;;;;5083791;28;1182;-70
2023/09/28 02:57:59;;;;;;;;;;;21.10;72.80;;;;;;5099523;28;1901;-69
2023/09/28 03:00:32;;;;;;;;;;;21.10;72.70;;;;;;5099212;28;1663;-70
2023/09/28 03:03:00;;;;;;;;;;;21.10;72.80;;;;;;5098660;28;1620;-70
2023/09/28 03:05:27;;;;;;;;;;;21.10;72.70;;;;;;5074867;28;1497;-70
2023/09/28 03:07:52;;;;;;;;;;;21.10;72.80;;;;;;5100571;28;1449;-70
2023/09/28 03:10:19;;;;;;;;;;;21.10;72.80;;;;;;5085012;28;1568;-70
2023/09/28 03:12:46;;;;;;;;;;;21.10;72.70;;;;;;5079085;28;1429;-69
2023/09/28 03:15:12;;;;;;;;;;;21.10;72.80;;;;;;5097911;28;1242;-70
2023/09/28 03:17:39;;;;;;;;;;;21.10;72.80;;;;;;5099200;28;1909;-70
2023/09/28 03:20:24;;;;;;;;;;;21.10;72.70;;;;;;5082282;28;1302;-69
2023/09/28 03:22:50;;;;;;;;;;;21.10;72.80;;;;;;5083705;28;988;-70
2023/09/28 03:25:17;;;;;;;;;;;21.10;72.80;;;;;;5083050;28;1361;-70
2023/09/28 03:27:43;;;;;;;;;;;21.10;72.80;;;;;;5103181;28;1150;-70
2023/09/28 03:30:10;;;;;;;;;;;21.10;72.80;;;;;;5084404;28;1377;-70
2023/09/28 03:32:37;;;;;;;;;;;21.10;72.80;;;;;;5086292;28;1588;-70
2023/09/28 03:35:03;;;;;;;;;;;21.10;72.80;;;;;;5099884;28;1554;-70
2023/09/28 03:37:28;;;;;;;;;;;21.10;72.80;;;;;;5085502;28;1961;-70
2023/09/28 03:39:54;;;;;;;;;;;21.10;72.80;;;;;;5081282;28;1356;-70
2023/09/28 03:42:19;;;;;;;;;;;21.10;72.80;;;;;;5098597;28;1284;-70
2023/09/28 03:44:45;;;;;;;;;;;21.10;72.80;;;;;;5100303;28;1464;-70
2023/09/28 03:47:11;;;;;;;;;;;21.10;72.80;;;;;;5102953;28;1325;-70
2023/09/28 03:49:37;;;;;;;;;;;21.10;72.80;;;;;;5098110;28;1492;-71
2023/09/28 03:52:02;;;;;;;;;;;21.10;72.80;;;;;;5098512;28;1436;-71
2023/09/28 03:54:28;;;;;;;;;;;21.10;72.80;;;;;;5100477;28;1274;-71
2023/09/28 03:56:53;;;;;;;;;;;21.10;72.80;;;;;;5097969;28;1965;-71
2023/09/28 03:59:19;;;;;;;;;;;21.10;72.80;;;;;;5071287;28;1431;-71
2023/09/28 04:01:44;;;;;;;;;;;21.10;72.80;;;;;;5102050;28;1512;-71
2023/09/28 04:04:10;;;;;;;;;;;21.10;72.80;;;;;;5079620;28;1964;-70
2023/09/28 04:06:35;;;;;;;;;;;21.10;72.80;;;;;;5079502;28;1884;-69
2023/09/28 04:09:04;;;;;;;;;;;21.10;72.80;;;;;;5097840;28;1377;-69
2023/09/28 04:11:29;;;;;;;;;;;21.10;72.80;;;;;;5097087;28;1149;-70
2023/09/28 04:13:55;;;;;;;;;;;21.10;72.80;;;;;;5097064;28;1356;-70
2023/09/28 04:16:21;;;;;;;;;;;21.10;72.80;;;;;;5097209;28;1492;-70
2023/09/28 04:18:46;;;;;;;;;;;21.10;72.80;;;;;;5099834;28;1909;-70
2023/09/28 04:21:12;;;;;;;;;;;21.10;72.80;;;;;;5101924;28;1220;-69
2023/09/28 04:23:38;;;;;;;;;;;21.10;72.80;;;;;;5080176;28;1280;-71
2023/09/28 04:26:05;;;;;;;;;;;21.10;72.80;;;;;;5096035;28;1313;-69
2023/09/28 04:28:30;;;;;;;;;;;21.10;72.80;;;;;;5094746;28;1339;-72
2023/09/28 04:30:56;;;;;;;;;;;21.10;72.80;;;;;;5099295;28;1425;-73
2023/09/28 04:33:21;;;;;;;;;;;21.10;72.90;;;;;;5101776;28;1090;-69
2023/09/28 04:35:47;;;;;;;;;;;21.10;72.80;;;;;;5083224;28;1257;-69
2023/09/28 04:38:13;;;;;;;;;;;21.10;72.80;;;;;;5078775;28;1969;-69
2023/09/28 04:40:38;;;;;;;;;;;21.10;72.80;;;;;;5102281;28;1165;-70
2023/09/28 04:43:04;;;;;;;;;;;21.10;72.80;;;;;;5102204;28;1275;-68
2023/09/28 04:45:29;;;;;;;;;;;21.10;72.80;;;;;;5106872;28;1398;-69
2023/09/28 04:47:55;;;;;;;;;;;21.10;72.80;;;;;;5106523;28;1414;-68
2023/09/28 04:50:20;;;;;;;;;;;21.10;72.80;;;;;;5085592;28;1440;-71
2023/09/28 04:52:46;;;;;;;;;;;21.10;72.80;;;;;;5104006;28;1438;-69
2023/09/28 04:55:11;;;;;;;;;;;21.10;72.80;;;;;;5102701;28;1477;-69
2023/09/28 04:57:37;;;;;;;;;;;21.10;72.80;;;;;;5103153;28;1910;-70
2023/09/28 05:00:06;;;;;;;;;;;21.10;72.90;;;;;;5102955;28;1291;-68
2023/09/28 05:02:32;;;;;;;;;;;21.10;72.80;;;;;;5103736;28;1110;-68
2023/09/28 05:04:57;;;;;;;;;;;21.10;72.90;;;;;;5105794;28;1483;-67
2023/09/28 05:07:23;;;;;;;;;;;21.10;72.90;;;;;;5102093;28;1005;-68
2023/09/28 05:09:49;;;;;;;;;;;21.10;72.90;;;;;;5102630;28;1384;-69
2023/09/28 05:12:14;;;;;;;;;;;21.10;72.90;;;;;;5100315;28;1138;-69
2023/09/28 05:14:41;;;;;;;;;;;21.10;72.80;;;;;;5104459;28;938;-70
2023/09/28 05:17:06;;;;;;;;;;;21.10;72.90;;;;;;5085733;28;1905;-70
2023/09/28 05:19:32;;;;;;;;;;;21.10;72.90;;;;;;5103116;28;1749;-68
2023/09/28 05:21:57;;;;;;;;;;;21.10;72.80;;;;;;5083450;28;1334;-68
2023/09/28 05:24:23;;;;;;;;;;;21.10;72.80;;;;;;5102760;28;1178;-68
2023/09/28 05:26:48;;;;;;;;;;;21.10;72.90;;;;;;5102343;28;979;-69
2023/09/28 05:29:14;;;;;;;;;;;21.10;72.80;;;;;;5083584;28;1300;-68
2023/09/28 05:31:40;;;;;;;;;;;21.10;72.90;;;;;;5102223;28;1045;-71
2023/09/28 05:34:06;;;;;;;;;;;21.10;72.90;;;;;;5102275;28;1427;-68
2023/09/28 05:36:31;;;;;;;;;;;21.10;72.80;;;;;;5103656;28;1238;-71
2023/09/28 05:38:56;;;;;;;;;;;21.10;72.90;;;;;;5103714;28;1981;-71
2023/09/28 05:41:22;;;;;;;;;;;21.10;72.90;;;;;;5103167;28;1229;-70
2023/09/28 05:43:48;;;;;;;;;;;21.10;72.90;;;;;;5102796;28;1303;-67
2023/09/28 05:46:14;;;;;;;;;;;21.10;72.90;;;;;;5084315;28;1287;-68
2023/09/28 05:48:40;;;;;;;;;;;21.10;72.90;;;;;;5100305;28;1555;-71
2023/09/28 05:51:05;;;;;;;;;;;21.10;72.90;;;;;;5107404;28;1414;-69
2023/09/28 05:53:31;;;;;;;;;;;21.10;72.80;;;;;;5103903;28;1380;-69
2023/09/28 05:55:56;;;;;;;;;;;21.10;72.00;;;;;;5090876;28;1199;-69
2023/09/28 05:58:22;;;;;;;;;;;21.10;71.00;;;;;;5099608;28;1967;-68
2023/09/28 06:00:47;;;;;;;;;;;21.10;71.20;;;;;;5097781;28;1514;-68
2023/09/28 06:03:13;;;;;;;;;;;21.10;70.60;;;;;;5092061;28;2476;-69
2023/09/28 06:05:40;;;;;;;;;;;21.10;70.20;;;;;;5086887;28;1979;-69
2023/09/28 06:08:05;;;;;;;;;;;21.10;70.10;;;;;;5097962;28;1356;-69
2023/09/28 06:10:31;;;;;;;;;;;21.10;69.70;;;;;;5083731;28;1330;-69
2023/09/28 06:12:57;;;;;;;;;;;21.10;69.90;;;;;;5099547;28;1255;-69
2023/09/28 06:15:23;;;;;;;;;;;21.10;69.40;;;;;;5103060;28;1388;-68
2023/09/28 06:17:48;;;;;;;;;;;21.10;69.50;;;;;;5105586;28;1983;-68
2023/09/28 06:20:14;;;;;;;;;;;21.10;69.40;;;;;;5102641;28;1449;-68
2023/09/28 06:22:40;;;;;;;;;;;21.10;69.20;;;;;;5100847;28;1317;-68
2023/09/28 06:25:07;;;;;;;;;;;21.10;68.90;;;;;;5100129;28;1478;-70
2023/09/28 06:27:33;;;;;;;;;;;21.10;68.90;;;;;;5102340;28;1051;-69
2023/09/28 06:29:58;;;;;;;;;;;21.10;69.00;;;;;;5082405;28;1446;-70
2023/09/28 06:32:24;;;;;;;;;;;21.00;68.30;;;;;;5101552;28;1671;-72
2023/09/28 06:34:50;;;;;;;;;;;21.00;68.50;;;;;;5100879;28;1477;-70
2023/09/28 06:37:15;;;;;;;;;;;21.10;68.50;;;;;;5103480;28;1918;-70
2023/09/28 06:39:41;;;;;;;;;;;21.00;68.40;;;;;;5100968;28;1260;-70
2023/09/28 06:42:06;;;;;;;;;;;21.00;68.60;;;;;;5102904;28;1143;-71
2023/09/28 06:44:33;;;;;;;;;;;21.00;68.50;;;;;;5084966;28;1503;-70
2023/09/28 06:46:59;;;;;;;;;;;21.00;68.50;;;;;;5101127;28;1270;-68
2023/09/28 06:49:26;;;;;;;;;;;21.00;68.40;;;;;;5103339;28;1466;-68
2023/09/28 06:51:52;;;;;;;;;;;21.00;68.80;;;;;;5086134;28;1350;-69
2023/09/28 06:54:19;;;;;;;;;;;21.00;68.50;;;;;;5085442;28;1451;-71
2023/09/28 06:56:47;;;;;;;;;;;21.00;68.30;;;;;;5106181;28;1313;-71
2023/09/28 06:59:13;;;;;;;;;;;21.00;68.50;;;;;;5108086;28;1902;-69
2023/09/28 07:01:39;;;;;;;;;;;21.00;68.10;;;;;;5089525;28;1356;-68
2023/09/28 07:04:04;;;;;;;;;;;21.00;68.10;;;;;;5100307;28;1236;-69
2023/09/28 07:06:30;;;;;;;;;;;21.00;68.20;;;;;;5102799;28;1442;-68
2023/09/28 07:08:57;;;;;;;;;;;21.00;68.30;;;;;;5083720;28;1348;-68
2023/09/28 07:11:23;;;;;;;;;;;21.00;68.20;;;;;;5098397;28;1685;-68
2023/09/28 07:13:49;;;;;;;;;;;21.00;69.20;;;;;;5083344;28;1472;-68
2023/09/28 07:16:14;;;;;;;;;;;21.00;68.30;;;;;;5101289;28;1468;-68
2023/09/28 07:18:40;;;;;;;;;;;21.00;68.30;;;;;;5099678;28;1897;-68
2023/09/28 07:21:05;;;;;;;;;;;21.00;68.40;;;;;;5103391;28;1237;-68
2023/09/28 07:23:31;;;;;;;;;;;21.00;68.40;;;;;;5102817;28;1234;-68
2023/09/28 07:25:57;;;;;;;;;;;21.00;68.30;;;;;;5101298;28;1434;-69
2023/09/28 07:28:22;;;;;;;;;;;21.00;68.10;;;;;;5101883;28;1737;-68
2023/09/28 07:30:47;;;;;;;;;;;21.00;68.20;;;;;;5100729;28;1313;-69
2023/09/28 07:33:15;;;;;;;;;;;21.00;68.00;;;;;;5087678;28;1360;-70
2023/09/28 07:35:44;;;;;;;;;;;21.00;68.20;;;;;;5104734;28;1277;-69
2023/09/28 07:38:09;;;;;;;;;;;21.00;68.20;;;;;;5081030;28;1910;-69
2023/09/28 07:40:35;;;;;;;;;;;21.00;68.10;;;;;;5100383;28;1403;-69
2023/09/28 07:43:00;;;;;;;;;;;21.00;68.30;;;;;;5101652;28;1352;-70
2023/09/28 07:45:26;;;;;;;;;;;21.00;68.20;;;;;;5101477;28;1417;-69
2023/09/28 07:47:51;;;;;;;;;;;21.00;68.40;;;;;;5102666;28;1457;-69
2023/09/28 07:50:17;;;;;;;;;;;20.90;68.30;;;;;;5100595;28;1381;-69
2023/09/28 07:52:43;;;;;;;;;;;21.00;68.40;;;;;;5101580;28;1260;-69
2023/09/28 07:55:08;;;;;;;;;;;21.00;68.40;;;;;;5102497;28;1319;-70
2023/09/28 07:57:34;;;;;;;;;;;20.90;68.40;;;;;;5084444;28;1902;-67
2023/09/28 08:00:00;;;;;;;;;;;21.00;68.50;;;;;;5086854;28;1422;-67
2023/09/28 08:02:25;;;;;;;;;;;21.00;68.40;;;;;;5097850;28;1380;-66
2023/09/28 08:04:53;;;;;;;;;;;20.90;68.40;;;;;;5096311;28;1474;-66
2023/09/28 08:07:18;;;;;;;;;;;20.90;68.50;;;;;;5100422;28;958;-65
2023/09/28 08:09:44;;;;;;;;;;;20.90;68.60;;;;;;5101599;28;2041;-66
2023/09/28 08:12:09;;;;;;;;;;;20.90;68.90;;;;;;5102713;28;934;-66
2023/09/28 08:14:35;;;;;;;;;;;21.00;69.10;;;;;;5101399;28;1280;-66
2023/09/28 08:17:00;;;;;;;;;;;21.00;69.20;;;;;;5082611;28;1909;-65
2023/09/28 08:19:25;;;;;;;;;;;20.90;69.20;;;;;;5102180;28;1274;-66
2023/09/28 08:21:51;;;;;;;;;;;21.00;69.30;;;;;;5102944;28;1219;-66
2023/09/28 08:24:17;;;;;;;;;;;21.00;69.30;;;;;;5103359;28;1434;-66
2023/09/28 08:26:43;;;;;;;;;;;21.00;69.40;;;;;;5086801;28;1426;-65
2023/09/28 08:29:08;;;;;;;;;;;21.00;69.50;;;;;;5106183;28;1353;-66
2023/09/28 08:31:34;;;;;;;;;;;21.00;69.50;;;;;;5099647;28;1494;-66
2023/09/28 08:33:59;;;;;;;;;;;21.00;69.60;;;;;;5106075;28;1457;-66
2023/09/28 08:36:25;;;;;;;;;;;21.00;69.70;;;;;;5107441;28;1548;-66
2023/09/28 08:38:51;;;;;;;;;;;21.00;69.80;;;;;;5101778;28;1905;-66
2023/09/28 08:41:16;;;;;;;;;;;21.00;70.60;;;;;;5104877;28;1508;-66
2023/09/28 08:43:43;;;;;;;;;;;21.00;70.00;;;;;;5086117;28;2091;-66
2023/09/28 08:46:10;;;;;;;;;;;21.00;70.00;;;;;;5086326;28;1194;-66
2023/09/28 08:48:36;;;;;;;;;;;21.00;70.10;;;;;;5088158;28;1252;-66
2023/09/28 08:51:09;;;;;;;;;;;21.00;70.10;;;;;;5086182;28;1261;-65
2023/09/28 08:53:36;;;;;;;;;;;21.00;70.30;;;;;;5102978;28;1124;-66
2023/09/28 08:56:03;;;;;;;;;;;21.00;70.30;;;;;;5102075;28;1242;-65
2023/09/28 08:58:28;;;;;;;;;;;21.00;70.30;;;;;;5100015;28;1906;-66
2023/09/28 09:00:54;;;;;;;;;;;21.10;70.60;;;;;;5102734;28;1401;-66
2023/09/28 09:03:21;;;;;;;;;;;21.10;70.70;;;;;;5084302;28;1377;-66
2023/09/28 09:05:46;;;;;;;;;;;21.10;70.80;;;;;;5086839;28;1471;-66
2023/09/28 09:08:12;;;;;;;;;;;21.10;70.90;;;;;;5102546;28;1260;-66
2023/09/28 09:10:38;;;;;;;;;;;21.20;71.00;;;;;;5086758;28;1432;-66
2023/09/28 09:13:03;;;;;;;;;;;21.10;70.80;;;;;;5084694;28;1303;-66
2023/09/28 09:15:29;;;;;;;;;;;21.20;71.10;;;;;;5104243;28;1129;-66
2023/09/28 09:18:03;;;;;;;;;;;21.20;71.20;;;;;;5101877;28;1897;-66
2023/09/28 09:20:29;;;;;;;;;;;21.20;71.10;;;;;;5100844;28;1660;-66
2023/09/28 09:22:55;;;;;;;;;;;21.20;71.00;;;;;;5103275;28;1840;-66
2023/09/28 09:25:20;;;;;;;;;;;21.20;71.00;;;;;;5098293;28;1970;-66
2023/09/28 09:27:46;;;;;;;;;;;21.20;71.50;;;;;;5103850;28;1121;-66
2023/09/28 09:30:14;;;;;;;;;;;21.30;71.80;;;;;;5101813;28;2113;-66
2023/09/28 09:32:42;;;;;;;;;;;21.30;72.10;;;;;;5104973;28;1557;-66
2023/09/28 09:35:08;;;;;;;;;;;21.30;72.20;;;;;;5083552;28;1267;-66
2023/09/28 09:37:33;;;;;;;;;;;21.40;72.40;;;;;;5103148;28;1910;-65
2023/09/28 09:40:11;;;;;;;;;;;21.40;72.10;;;;;;5105903;28;1427;-67
2023/09/28 09:42:37;;;;;;;;;;;21.30;72.00;;;;;;5104075;28;1131;-67
2023/09/28 09:45:04;;;;;;;;;;;21.40;72.50;;;;;;5105394;28;1352;-67
2023/09/28 09:47:29;;;;;;;;;;;21.40;72.40;;;;;;5096411;28;1262;-67
2023/09/28 09:49:55;;;;;;;;;;;21.40;72.60;;;;;;5100585;28;1368;-67
2023/09/28 09:52:20;;;;;;;;;;;21.50;72.70;;;;;;5084677;28;1608;-67
2023/09/28 09:54:46;;;;;;;;;;;21.40;72.70;;;;;;5092722;28;1450;-67
2023/09/28 09:57:12;;;;;;;;;;;21.50;72.80;;;;;;5102869;28;1902;-67
2023/09/28 09:59:38;;;;;;;;;;;21.50;72.80;;;;;;5099072;28;1466;-67
2023/09/28 10:02:07;;;;;;;;;;;21.50;73.30;;;;;;5085880;28;1478;-68
2023/09/28 10:04:32;;;;;;;;;;;21.60;73.00;;;;;;5104493;28;1263;-69
2023/09/28 10:07:00;;;;;;;;;;;21.60;73.00;;;;;;5099870;28;1230;-67
2023/09/28 10:09:25;;;;;;;;;;;21.60;72.80;;;;;;5086650;28;1666;-67
2023/09/28 10:11:51;;;;;;;;;;;21.60;72.80;;;;;;5104111;28;1680;-67
2023/09/28 10:14:18;;;;;;;;;;;21.60;73.40;;;;;;5092918;28;1345;-66
2023/09/28 10:16:44;;;;;;;;;;;21.70;72.60;;;;;;5085862;28;1151;-68
2023/09/28 10:19:09;;;;;;;;;;;21.70;72.40;;;;;;5081576;28;1901;-67
2023/09/28 10:21:35;;;;;;;;;;;21.70;72.30;;;;;;5088148;28;1469;-67
2023/09/28 10:24:08;;;;;;;;;;;21.70;72.30;;;;;;5103516;28;1307;-69
2023/09/28 10:26:33;;;;;;;;;;;21.70;72.30;;;;;;5104285;28;1262;-68
2023/09/28 10:29:05;;;;;;;;;;;21.70;72.00;;;;;;5105908;28;1268;-66
2023/09/28 10:31:35;;;;;;;;;;;21.70;72.40;;;;;;5100824;28;1673;-68
2023/09/28 10:34:01;;;;;;;;;;;21.70;72.20;;;;;;5083911;28;1373;-67
2023/09/28 10:36:26;;;;;;;;;;;21.70;72.20;;;;;;5099847;28;1309;-67
2023/09/28 10:39:13;;;;;;;;;;;21.70;71.40;;;;;;5099016;28;1930;-66
2023/09/28 10:41:39;;;;;;;;;;;21.70;71.30;;;;;;5099437;28;1489;-67
2023/09/28 10:44:14;;;;;;;;;;;21.80;71.20;;;;;;5097369;28;1358;-67
2023/09/28 10:46:44;;;;;;;;;;;21.80;71.30;;;;;;5098899;28;1439;-67
2023/09/28 10:49:12;;;;;;;;;;;21.80;70.90;;;;;;5062296;28;1652;-67
2023/09/28 10:51:37;;;;;;;;;;;21.80;71.00;;;;;;5084856;28;1848;-67
2023/09/28 10:54:04;;;;;;;;;;;21.80;71.00;;;;;;5099945;28;1403;-67
2023/09/28 10:56:30;;;;;;;;;;;21.80;70.90;;;;;;5083650;28;1342;-67
2023/09/28 10:58:56;;;;;;;;;;;21.80;70.50;;;;;;5083089;28;1941;-68
2023/09/28 11:01:22;;;;;;;;;;;21.80;70.50;;;;;;5079708;28;1399;-68
2023/09/28 11:03:52;;;;;;;;;;;21.80;69.80;;;;;;5081992;28;1806;-69
2023/09/28 11:06:18;;;;;;;;;;;21.80;69.80;;;;;;5083331;28;1562;-69
2023/09/28 11:08:43;;;;;;;;;;;21.80;69.90;;;;;;5078865;28;1726;-69
2023/09/28 11:11:08;;;;;;;;;;;21.80;69.90;;;;;;5104299;28;1222;-69
2023/09/28 11:13:34;;;;;;;;;;;21.70;69.80;;;;;;5083688;28;883;-70
2023/09/28 11:15:59;;;;;;;;;;;21.80;69.80;;;;;;5088396;28;1433;-69
2023/09/28 11:18:28;;;;;;;;;;;21.70;69.80;;;;;;5083075;28;1960;-69
2023/09/28 11:20:57;;;;;;;;;;;21.70;69.70;;;;;;5082458;28;1423;-69
2023/09/28 11:23:22;;;;;;;;;;;21.70;69.70;;;;;;5100263;28;1299;-68
2023/09/28 11:25:48;;;;;;;;;;;21.70;69.80;;;;;;5082889;28;1124;-68
2023/09/28 11:28:14;;;;;;;;;;;21.70;68.90;;;;;;5101317;28;1420;-70
2023/09/28 11:30:39;;;;;;;;;;;21.70;69.10;;;;;;5100228;28;1029;-68
2023/09/28 11:33:05;;;;;;;;;;;21.80;69.10;;;;;;5099476;28;837;-68
2023/09/28 11:35:31;;;;;;;;;;;21.70;69.00;;;;;;5080733;28;1425;-68
2023/09/28 11:38:00;;;;;;;;;;;21.70;69.10;;;;;;5083015;28;1965;-68
2023/09/28 11:40:25;;;;;;;;;;;21.80;69.00;;;;;;5081120;28;1651;-68
2023/09/28 11:42:51;;;;;;;;;;;21.80;69.30;;;;;;5080747;28;1144;-68
2023/09/28 11:45:17;;;;;;;;;;;21.80;69.30;;;;;;5096746;28;1254;-68
2023/09/28 11:47:46;;;;;;;;;;;21.80;69.20;;;;;;5098677;28;1290;-71
2023/09/28 11:50:11;;;;;;;;;;;21.80;69.10;;;;;;5101321;28;1348;-70
2023/09/28 11:52:37;;;;;;;;;;;21.80;69.20;;;;;;5103152;28;1508;-70
2023/09/28 11:55:05;;;;;;;;;;;21.80;69.50;;;;;;5103196;28;1311;-70
2023/09/28 11:57:35;;;;;;;;;;;21.80;69.70;;;;;;5102335;28;1929;-70
2023/09/28 12:00:01;;;;;;;;;;;21.80;69.70;;;;;;5085837;28;1291;-70
2023/09/28 12:02:26;;;;;;;;;;;21.80;69.80;;;;;;5102571;28;1581;-70
2023/09/28 12:04:53;;;;;;;;;;;21.80;70.30;;;;;;5105545;28;1386;-70
2023/09/28 12:07:19;;;;;;;;;;;21.90;70.10;;;;;;5084821;28;1293;-70
2023/09/28 12:09:45;;;;;;;;;;;21.90;69.70;;;;;;5100680;28;1372;-68
2023/09/28 12:12:10;;;;;;;;;;;21.90;68.50;;;;;;5102014;28;1267;-68
2023/09/28 12:14:35;;;;;;;;;;;22.00;68.70;;;;;;5102517;28;1468;-68
2023/09/28 12:17:01;;;;;;;;;;;22.00;68.40;;;;;;5099751;28;1449;-68
2023/09/28 12:19:27;;;;;;;;;;;22.00;68.60;;;;;;5103754;28;1890;-68
2023/09/28 12:21:53;;;;;;;;;;;22.00;68.60;;;;;;5104441;28;1308;-69
2023/09/28 12:24:18;;;;;;;;;;;22.00;68.80;;;;;;5102540;28;1511;-69
2023/09/28 12:26:44;;;;;;;;;;;22.00;68.40;;;;;;5105227;28;1188;-68
2023/09/28 12:29:10;;;;;;;;;;;22.00;68.30;;;;;;5105135;28;1304;-68
2023/09/28 12:31:35;;;;;;;;;;;22.00;68.40;;;;;;5075901;28;1624;-68
2023/09/28 12:34:01;;;;;;;;;;;22.00;68.40;;;;;;5103165;28;1133;-67
2023/09/28 12:36:27;;;;;;;;;;;22.00;68.80;;;;;;5104713;28;1303;-68
2023/09/28 12:38:53;;;;;;;;;;;22.00;68.60;;;;;;5084748;28;1951;-68
2023/09/28 12:41:18;;;;;;;;;;;22.00;68.30;;;;;;5102038;28;1392;-71
2023/09/28 12:43:44;;;;;;;;;;;22.10;68.40;;;;;;5101424;28;1363;-71
2023/09/28 12:46:09;;;;;;;;;;;22.10;68.10;;;;;;5088227;28;1497;-70
2023/09/28 12:48:35;;;;;;;;;;;22.10;68.20;;;;;;5100763;28;1399;-70
2023/09/28 12:51:00;;;;;;;;;;;22.00;68.40;;;;;;5106290;28;1243;-70
2023/09/28 12:53:26;;;;;;;;;;;22.00;68.40;;;;;;5097080;28;1349;-70
2023/09/28 12:55:54;;;;;;;;;;;22.00;68.60;;;;;;5091841;28;1018;-70
2023/09/28 12:58:20;;;;;;;;;;;22.00;68.60;;;;;;5110534;28;1894;-70
2023/09/28 13:00:46;;;;;;;;;;;22.00;68.60;;;;;;5104606;28;1223;-70
2023/09/28 13:03:11;;;;;;;;;;;22.00;68.60;;;;;;5112472;28;1098;-71
2023/09/28 13:05:41;;;;;;;;;;;22.00;68.90;;;;;;5116110;28;1434;-70
2023/09/28 13:08:08;;;;;;;;;;;21.90;68.90;;;;;;5086290;28;844;-70
2023/09/28 13:10:34;;;;;;;;;;;21.90;68.90;;;;;;5088430;28;1239;-71
2023/09/28 13:13:01;;;;;;;;;;;21.90;68.70;;;;;;5106633;28;795;-70
2023/09/28 13:15:26;;;;;;;;;;;21.90;68.00;;;;;;5103957;28;1274;-71
2023/09/28 13:17:52;;;;;;;;;;;22.00;68.20;;;;;;5085610;28;1894;-71
2023/09/28 13:20:27;;;;;;;;;;;22.00;68.20;;;;;;5103106;28;1427;-70
2023/09/28 13:22:57;;;;;;;;;;;22.00;68.20;;;;;;5087838;28;1404;-69
2023/09/28 13:25:23;;;;;;;;;;;22.00;67.60;;;;;;5086960;28;1343;-69
2023/09/28 13:27:49;;;;;;;;;;;22.00;67.60;;;;;;5100616;28;1397;-70
2023/09/28 13:30:14;;;;;;;;;;;22.00;67.10;;;;;;5081876;28;1354;-70
2023/09/28 13:32:40;;;;;;;;;;;22.10;67.00;;;;;;5084106;28;1291;-70
2023/09/28 13:35:06;;;;;;;;;;;22.10;67.00;;;;;;5084105;22;3564;-72
2023/09/28 13:37:32;;;;;;;;;;;22.10;67.00;;;;;;5053782;28;1983;-72
2023/09/28 13:39:57;;;;;;;;;;;22.10;66.50;;;;;;5073031;28;1521;-72
2023/09/28 13:42:23;;;;;;;;;;;22.10;66.50;;;;;;5055333;28;1435;-73
2023/09/28 13:44:48;;;;;;;;;;;22.10;66.80;;;;;;5059037;28;1358;-74
2023/09/28 13:47:14;;;;;;;;;;;22.10;66.30;;;;;;5052022;28;1238;-74
2023/09/28 13:49:39;;;;;;;;;;;22.10;66.10;;;;;;5040698;28;1383;-74
2023/09/28 13:52:05;;;;;;;;;;;22.10;66.20;;;;;;5055877;28;1381;-74
2023/09/28 13:54:31;;;;;;;;;;;22.00;66.20;;;;;;5055852;28;1330;-74
2023/09/28 13:57:04;;;;;;;;;;;22.10;66.50;;;;;;5038888;28;1477;-73
2023/09/28 13:59:31;;;;;;;;;;;22.00;66.30;;;;;;5036358;28;1906;-74
2023/09/28 14:01:57;;;;;;;;;;;22.00;65.90;;;;;;5054887;28;1305;-73
2023/09/28 14:04:23;;;;;;;;;;;22.00;65.80;;;;;;5037367;28;1488;-74
2023/09/28 14:06:48;;;;;;;;;;;22.00;65.10;;;;;;5039892;28;1286;-74
2023/09/28 14:09:18;;;;;;;;;;;22.10;65.10;;;;;;5039354;28;1314;-74
2023/09/28 14:11:43;;;;;;;;;;;22.10;65.50;;;;;;5036822;28;1555;-74
2023/09/28 14:14:09;;;;;;;;;;;22.10;65.50;;;;;;5051611;28;1276;-72
2023/09/28 14:16:36;;;;;;;;;;;22.10;65.20;;;;;;5057929;28;1222;-73
2023/09/28 14:19:03;;;;;;;;;;;22.10;65.40;;;;;;5055357;28;2006;-73
2023/09/28 14:21:29;;;;;;;;;;;22.10;65.40;;;;;;5054631;28;1585;-72
2023/09/28 14:23:55;;;;;;;;;;;22.10;65.00;;;;;;5036188;28;1296;-73
2023/09/28 14:26:20;;;;;;;;;;;22.10;65.10;;;;;;5057144;28;1598;-73
2023/09/28 14:28:46;;;;;;;;;;;22.10;65.20;;;;;;5033416;28;1245;-74